Time;durP1;ratioP1;P1;durP2;ratioP2;P2;SDS_P1;SDS_P2;PMS_P1;PMS_P2;Temp;Humidity;BMP_temperature;BMP_pressure;BME280_temperature;BME280_humidity;BME280_pressure;Samples;Min_cycle;Max_cycle;Signal;HPM_P1;HPM_P2
2024/03/25 00:02:10;;;;;;;1.13;0.70;;;20.90;57.00;;;;;;4954165;28;87620;-56
2024/03/25 00:04:36;;;;;;;1.05;0.70;;;20.90;57.10;;;;;;4952438;28;88861;-59
2024/03/25 00:07:02;;;;;;;1.45;0.80;;;20.90;57.20;;;;;;4951741;28;87952;-56
2024/03/25 00:09:28;;;;;;;1.33;0.90;;;20.90;57.10;;;;;;4954051;28;87213;-57
2024/03/25 00:11:54;;;;;;;1.25;0.90;;;20.90;57.10;;;;;;4951057;28;87411;-59
2024/03/25 00:14:23;;;;;;;1.20;1.00;;;20.80;57.00;;;;;;4952313;28;87772;-58
2024/03/25 00:16:49;;;;;;;2.75;1.08;;;20.80;57.10;;;;;;4949833;28;87788;-58
2024/03/25 00:19:16;;;;;;;1.42;0.85;;;20.80;57.00;;;;;;4952528;28;87559;-57
2024/03/25 00:21:42;;;;;;;3.40;1.02;;;20.80;57.10;;;;;;4951658;28;87736;-59
2024/03/25 00:24:08;;;;;;;1.10;1.00;;;20.80;56.90;;;;;;4950411;28;88356;-59
2024/03/25 00:26:34;;;;;;;0.65;0.52;;;20.80;56.90;;;;;;4953786;28;88088;-58
2024/03/25 00:28:59;;;;;;;1.50;1.35;;;20.80;56.90;;;;;;4952540;28;87527;-58
2024/03/25 00:31:25;;;;;;;1.00;0.68;;;20.80;56.70;;;;;;4950106;28;91229;-59
2024/03/25 00:33:51;;;;;;;1.08;0.60;;;20.80;56.90;;;;;;4953021;28;88567;-58
2024/03/25 00:36:17;;;;;;;0.90;0.77;;;20.80;56.80;;;;;;4948228;28;87543;-57
2024/03/25 00:38:43;;;;;;;4.78;1.08;;;20.70;56.80;;;;;;4951184;28;87925;-57
2024/03/25 00:41:12;;;;;;;0.95;0.77;;;20.70;56.90;;;;;;4944342;28;88779;-58
2024/03/25 00:43:38;;;;;;;1.33;1.08;;;20.70;56.90;;;;;;4963408;28;88952;-58
2024/03/25 00:46:04;;;;;;;1.65;0.70;;;20.70;56.70;;;;;;4942688;28;88111;-57
2024/03/25 00:48:29;;;;;;;0.73;0.73;;;20.70;56.80;;;;;;4971785;28;86691;-60
2024/03/25 00:50:55;;;;;;;1.10;0.80;;;20.70;56.70;;;;;;4971547;28;88023;-59
2024/03/25 00:53:22;;;;;;;1.75;1.00;;;20.70;56.70;;;;;;4970382;28;87663;-60
2024/03/25 00:55:48;;;;;;;1.05;0.90;;;20.70;56.90;;;;;;4970334;28;88575;-58
2024/03/25 00:58:14;;;;;;;1.23;0.70;;;20.70;56.70;;;;;;4971420;28;87553;-59
2024/03/25 01:00:40;;;;;;;1.83;0.85;;;20.70;56.80;;;;;;4970187;28;88950;-59
2024/03/25 01:03:05;;;;;;;1.10;0.75;;;20.70;56.80;;;;;;4967819;28;87511;-56
2024/03/25 01:05:32;;;;;;;0.82;0.77;;;20.60;56.70;;;;;;4971648;28;87586;-58
2024/03/25 01:07:57;;;;;;;2.85;1.33;;;20.70;56.80;;;;;;4954619;28;87426;-61
2024/03/25 01:10:23;;;;;;;1.00;0.80;;;20.70;56.70;;;;;;4951590;28;87466;-59
2024/03/25 01:12:50;;;;;;;0.73;0.68;;;20.70;56.80;;;;;;4951593;28;88287;-60
2024/03/25 01:15:16;;;;;;;1.08;0.88;;;20.60;56.70;;;;;;4950831;28;87595;-59
2024/03/25 01:17:41;;;;;;;0.75;0.60;;;20.60;56.80;;;;;;4951616;28;87400;-58
2024/03/25 01:20:09;;;;;;;1.27;0.80;;;20.60;56.70;;;;;;4949100;28;88972;-58
2024/03/25 01:22:34;;;;;;;1.48;0.80;;;20.60;56.70;;;;;;4949792;28;87939;-57
2024/03/25 01:25:00;;;;;;;1.27;0.65;;;20.60;56.60;;;;;;4952543;28;86981;-60
2024/03/25 01:27:26;;;;;;;1.25;0.70;;;20.60;56.60;;;;;;4951789;28;87040;-61
2024/03/25 01:29:52;;;;;;;1.55;0.93;;;20.60;56.60;;;;;;4949923;28;88209;-58
2024/03/25 01:32:18;;;;;;;1.13;0.82;;;20.60;56.60;;;;;;4951451;28;87947;-57
2024/03/25 01:34:45;;;;;;;1.42;0.90;;;20.60;56.70;;;;;;4949247;28;87585;-58
2024/03/25 01:37:10;;;;;;;1.05;0.88;;;20.60;56.50;;;;;;4950874;28;87038;-58
2024/03/25 01:39:37;;;;;;;1.08;0.70;;;20.60;56.60;;;;;;4950440;28;87068;-58
2024/03/25 01:42:03;;;;;;;1.05;0.73;;;20.50;56.50;;;;;;4949117;28;88618;-58
2024/03/25 01:44:31;;;;;;;0.73;0.65;;;20.60;56.50;;;;;;4951288;28;88978;-59
2024/03/25 01:46:59;;;;;;;1.08;0.70;;;20.50;56.40;;;;;;4950632;28;87419;-58
2024/03/25 01:49:25;;;;;;;1.40;0.73;;;20.50;56.40;;;;;;4950995;28;87642;-60
2024/03/25 01:51:51;;;;;;;1.40;0.70;;;20.50;56.50;;;;;;4951828;28;87856;-59
2024/03/25 01:54:19;;;;;;;0.88;0.77;;;20.50;56.60;;;;;;4950322;28;87099;-58
2024/03/25 01:56:46;;;;;;;0.70;0.70;;;20.50;56.60;;;;;;4951771;28;88094;-59
2024/03/25 01:59:14;;;;;;;2.15;0.73;;;20.50;56.60;;;;;;4951044;28;87334;-58
2024/03/25 02:01:41;;;;;;;0.82;0.80;;;20.50;56.50;;;;;;4949400;28;87964;-58
2024/03/25 02:04:08;;;;;;;1.25;0.85;;;20.50;56.50;;;;;;4950621;28;87824;-59
2024/03/25 02:06:35;;;;;;;0.90;0.80;;;20.40;56.40;;;;;;4949480;28;87893;-57
2024/03/25 02:09:03;;;;;;;0.80;0.70;;;20.40;56.50;;;;;;4948591;28;92119;-57
2024/03/25 02:11:30;;;;;;;0.85;0.50;;;20.50;56.50;;;;;;4950620;28;88782;-59
2024/03/25 02:13:56;;;;;;;1.08;0.60;;;20.50;56.50;;;;;;4950236;28;87458;-59
2024/03/25 02:16:21;;;;;;;0.77;0.60;;;20.40;56.30;;;;;;4949577;28;87334;-59
2024/03/25 02:18:47;;;;;;;1.17;0.75;;;20.40;56.40;;;;;;4949273;28;88057;-58
2024/03/25 02:21:13;;;;;;;1.05;0.80;;;20.40;56.40;;;;;;4950140;28;87910;-58
2024/03/25 02:23:42;;;;;;;0.80;0.80;;;20.40;56.40;;;;;;4950803;28;87541;-58
2024/03/25 02:26:48;;;;;;;1.10;0.73;;;20.40;56.40;;;;;;4952806;28;86749;-59
2024/03/25 02:29:14;;;;;;;1.20;0.85;;;20.40;56.30;;;;;;4984542;28;89309;-59
2024/03/25 02:31:40;;;;;;;1.35;0.80;;;20.40;56.20;;;;;;4966882;28;88166;-57
2024/03/25 02:34:06;;;;;;;1.17;0.70;;;20.40;56.30;;;;;;4966979;28;88301;-58
2024/03/25 02:36:32;;;;;;;2.20;1.00;;;20.40;56.20;;;;;;4969778;28;87374;-61
2024/03/25 02:38:59;;;;;;;1.15;0.70;;;20.40;56.00;;;;;;4969458;28;88092;-61
2024/03/25 02:42:09;;;;;;;0.82;0.65;;;20.40;56.00;;;;;;4967086;28;87826;-62
2024/03/25 02:44:34;;;;;;;;;;;20.40;56.00;;;;;;4970947;28;87112;-61
2024/03/25 02:47:01;;;;;;;2.13;0.70;;;20.30;56.00;;;;;;4966816;28;87755;-59
2024/03/25 02:49:27;;;;;;;1.45;0.73;;;20.30;56.20;;;;;;4969146;28;88836;-60
2024/03/25 02:51:53;;;;;;;1.05;0.63;;;20.30;56.00;;;;;;4969973;28;88460;-61
2024/03/25 02:54:19;;;;;;;1.50;1.02;;;20.30;56.20;;;;;;4967081;28;87516;-60
2024/03/25 02:56:45;;;;;;;1.42;0.80;;;20.30;56.20;;;;;;4968321;28;89589;-61
2024/03/25 02:59:11;;;;;;;0.60;0.60;;;20.30;56.20;;;;;;4960789;28;88802;-62
2024/03/25 03:01:37;;;;;;;0.88;0.60;;;20.20;56.10;;;;;;4946409;28;89479;-60
2024/03/25 03:04:03;;;;;;;1.40;0.80;;;20.20;56.10;;;;;;4949892;28;87733;-61
2024/03/25 03:06:29;;;;;;;1.00;0.60;;;20.20;55.90;;;;;;4950652;28;87351;-61
2024/03/25 03:08:54;;;;;;;1.58;0.57;;;20.20;56.10;;;;;;4950256;28;88112;-64
2024/03/25 03:11:20;;;;;;;1.00;0.60;;;20.20;56.10;;;;;;4949545;28;87827;-62
2024/03/25 03:13:46;;;;;;;0.80;0.80;;;20.20;56.20;;;;;;4952109;28;87491;-61
2024/03/25 03:16:11;;;;;;;1.15;0.70;;;20.20;56.10;;;;;;4954421;28;86912;-60
2024/03/25 03:18:37;;;;;;;0.93;0.70;;;20.20;56.00;;;;;;4952707;28;89205;-58
2024/03/25 03:21:03;;;;;;;2.33;0.73;;;20.20;56.00;;;;;;4954343;28;87609;-58
2024/03/25 03:23:28;;;;;;;1.08;0.80;;;20.20;56.00;;;;;;4954414;28;88321;-58
2024/03/25 03:25:55;;;;;;;0.50;0.50;;;20.20;56.00;;;;;;4952549;28;87765;-58
2024/03/25 03:28:20;;;;;;;0.52;0.50;;;20.20;56.00;;;;;;4952184;28;88825;-58
2024/03/25 03:30:47;;;;;;;1.55;0.60;;;20.20;56.00;;;;;;4954117;28;88333;-59
2024/03/25 03:33:14;;;;;;;0.50;0.50;;;20.10;56.00;;;;;;4954572;28;87612;-58
2024/03/25 03:35:39;;;;;;;2.90;0.90;;;20.10;55.90;;;;;;4954153;28;87220;-58
2024/03/25 03:38:05;;;;;;;0.98;0.73;;;20.10;55.90;;;;;;4951904;28;88484;-60
2024/03/25 03:40:32;;;;;;;0.88;0.70;;;20.10;56.00;;;;;;4946907;28;87905;-58
2024/03/25 03:42:58;;;;;;;1.30;0.85;;;20.10;55.90;;;;;;4968464;28;87390;-60
2024/03/25 03:45:24;;;;;;;1.75;0.75;;;20.10;55.80;;;;;;4954570;28;87682;-59
2024/03/25 03:47:50;;;;;;;0.70;0.60;;;20.10;55.70;;;;;;4951019;28;89729;-59
2024/03/25 03:50:18;;;;;;;1.05;0.75;;;20.10;55.70;;;;;;4953216;28;89067;-60
2024/03/25 03:52:44;;;;;;;0.70;0.57;;;20.10;55.70;;;;;;4953195;28;87452;-59
2024/03/25 03:55:10;;;;;;;1.05;0.70;;;20.10;55.70;;;;;;4950531;28;89389;-58
2024/03/25 03:57:36;;;;;;;0.63;0.45;;;20.10;55.70;;;;;;4953406;28;87998;-58
2024/03/25 04:00:02;;;;;;;0.70;0.70;;;20.10;55.70;;;;;;4954095;28;87933;-58
2024/03/25 04:02:31;;;;;;;1.13;0.80;;;20.10;55.60;;;;;;4965581;28;87745;-58
2024/03/25 04:04:57;;;;;;;0.70;0.60;;;20.10;55.50;;;;;;4973139;28;86680;-58
2024/03/25 04:07:27;;;;;;;1.55;1.08;;;20.10;55.70;;;;;;4971981;28;88676;-58
2024/03/25 04:09:54;;;;;;;1.10;0.70;;;20.10;55.70;;;;;;4973383;28;87397;-58
2024/03/25 04:12:20;;;;;;;0.90;0.65;;;20.10;55.70;;;;;;4971521;28;88125;-58
2024/03/25 04:14:54;;;;;;;0.82;0.60;;;20.10;55.70;;;;;;4951225;28;87796;-57
2024/03/25 04:17:21;;;;;;;1.02;0.75;;;20.00;55.70;;;;;;4952513;28;88681;-58
2024/03/25 04:19:50;;;;;;;1.35;0.85;;;20.10;55.70;;;;;;4947516;28;89366;-59
2024/03/25 04:22:16;;;;;;;0.70;0.52;;;20.00;55.70;;;;;;4954415;28;87375;-59
2024/03/25 04:24:43;;;;;;;0.70;0.70;;;20.00;55.70;;;;;;4951109;28;87316;-58
2024/03/25 04:27:10;;;;;;;0.85;0.52;;;20.00;55.70;;;;;;4941304;28;88237;-59
2024/03/25 04:29:35;;;;;;;0.88;0.75;;;20.00;55.60;;;;;;4950505;28;88668;-58
2024/03/25 04:32:02;;;;;;;0.90;0.63;;;20.00;55.60;;;;;;4945948;28;87040;-59
2024/03/25 04:34:29;;;;;;;0.68;0.68;;;20.00;55.60;;;;;;4943964;28;88620;-56
2024/03/25 04:36:55;;;;;;;2.33;0.80;;;20.00;55.50;;;;;;4953847;28;89061;-58
2024/03/25 04:39:24;;;;;;;0.98;0.80;;;20.00;55.70;;;;;;4951505;28;88152;-56
2024/03/25 04:41:50;;;;;;;1.58;0.80;;;20.00;55.60;;;;;;4951128;28;87620;-59
2024/03/25 04:44:18;;;;;;;0.77;0.70;;;20.00;55.60;;;;;;4949842;28;89299;-57
2024/03/25 04:46:44;;;;;;;0.70;0.70;;;20.00;55.60;;;;;;4950929;28;88609;-58
2024/03/25 04:49:11;;;;;;;1.23;0.95;;;19.90;55.60;;;;;;4952158;28;88584;-58
2024/03/25 04:51:37;;;;;;;0.73;0.60;;;19.90;55.50;;;;;;4953453;28;87633;-57
2024/03/25 04:54:03;;;;;;;1.27;0.75;;;19.90;55.50;;;;;;4952640;28;86207;-59
2024/03/25 04:56:31;;;;;;;0.88;0.57;;;19.90;55.60;;;;;;4951638;28;89220;-57
2024/03/25 04:59:01;;;;;;;0.63;0.60;;;19.90;55.50;;;;;;4947886;28;88875;-56
2024/03/25 05:01:27;;;;;;;1.52;0.85;;;19.90;55.40;;;;;;4935576;28;88010;-59
2024/03/25 05:03:53;;;;;;;1.10;0.70;;;19.90;55.50;;;;;;4951168;28;87746;-59
2024/03/25 05:06:19;;;;;;;0.73;0.73;;;19.90;55.40;;;;;;4948277;28;88901;-59
2024/03/25 05:08:45;;;;;;;2.08;0.52;;;19.90;55.50;;;;;;4952357;28;87384;-59
2024/03/25 05:11:10;;;;;;;0.73;0.73;;;19.90;55.50;;;;;;4943520;28;87173;-59
2024/03/25 05:13:41;;;;;;;0.73;0.70;;;19.90;55.50;;;;;;4948439;28;87598;-56
2024/03/25 05:16:12;;;;;;;1.00;0.60;;;19.80;55.40;;;;;;4949244;28;88625;-58
2024/03/25 05:18:41;;;;;;;0.85;0.70;;;19.90;55.50;;;;;;4951411;28;89228;-58
2024/03/25 05:21:08;;;;;;;1.65;1.17;;;19.80;55.50;;;;;;4951602;28;87074;-58
2024/03/25 05:23:34;;;;;;;1.05;0.77;;;19.80;55.60;;;;;;4952922;28;88720;-59
2024/03/25 05:26:01;;;;;;;0.80;0.65;;;19.80;56.20;;;;;;4946562;28;89476;-57
2024/03/25 05:28:27;;;;;;;1.92;0.88;;;19.80;55.50;;;;;;4946122;28;90675;-58
2024/03/25 05:30:54;;;;;;;0.75;0.60;;;19.80;55.50;;;;;;4950920;28;87862;-58
2024/03/25 05:33:20;;;;;;;1.25;0.68;;;19.80;55.60;;;;;;4931023;28;87476;-58
2024/03/25 05:35:47;;;;;;;0.50;0.50;;;19.80;55.50;;;;;;4947527;28;87790;-58
2024/03/25 05:38:13;;;;;;;1.02;0.60;;;19.80;55.60;;;;;;4927475;28;88505;-59
2024/03/25 05:40:39;;;;;;;2.03;0.80;;;19.80;55.50;;;;;;4936986;28;87361;-59
2024/03/25 05:43:05;;;;;;;0.57;0.57;;;19.80;55.60;;;;;;4950301;28;87921;-56
2024/03/25 05:45:31;;;;;;;0.80;0.60;;;19.80;55.70;;;;;;4953008;28;87941;-57
2024/03/25 05:47:57;;;;;;;0.77;0.65;;;19.80;55.50;;;;;;4949166;28;87218;-56
2024/03/25 05:50:23;;;;;;;0.85;0.85;;;19.80;55.40;;;;;;4946141;28;88510;-59
2024/03/25 05:52:49;;;;;;;1.20;0.63;;;19.80;55.50;;;;;;4950039;28;87277;-56
2024/03/25 05:55:14;;;;;;;0.73;0.73;;;19.80;55.40;;;;;;4949016;28;88250;-59
2024/03/25 05:57:40;;;;;;;1.95;0.68;;;19.80;55.30;;;;;;4951425;28;87548;-58
2024/03/25 06:00:07;;;;;;;0.80;0.60;;;19.80;55.40;;;;;;4948134;28;87732;-57
2024/03/25 06:02:33;;;;;;;0.60;0.60;;;19.80;55.40;;;;;;4947557;28;87352;-62
2024/03/25 06:04:59;;;;;;;0.80;0.60;;;19.80;55.30;;;;;;4948695;28;88290;-58
2024/03/25 06:07:24;;;;;;;1.23;0.60;;;19.80;55.50;;;;;;4951968;28;87953;-58
2024/03/25 06:09:50;;;;;;;0.85;0.75;;;19.80;55.50;;;;;;4952196;28;87516;-61
2024/03/25 06:12:19;;;;;;;0.57;0.50;;;19.80;55.40;;;;;;4947807;28;87317;-64
2024/03/25 06:14:49;;;;;;;0.52;0.52;;;19.90;55.50;;;;;;4948678;28;89107;-61
2024/03/25 06:17:15;;;;;;;1.67;0.77;;;19.90;55.40;;;;;;4942579;28;87938;-61
2024/03/25 06:19:46;;;;;;;1.70;0.52;;;19.90;55.30;;;;;;4940296;28;87571;-61
2024/03/25 06:22:17;;;;;;;0.73;0.60;;;19.90;55.40;;;;;;4948036;28;87987;-58
2024/03/25 06:24:49;;;;;;;0.60;0.60;;;19.90;55.30;;;;;;4967293;28;88701;-58
2024/03/25 06:27:15;;;;;;;1.90;0.70;;;19.90;55.30;;;;;;4949544;28;87418;-58
2024/03/25 06:29:42;;;;;;;0.55;0.55;;;19.90;55.40;;;;;;4949838;28;87211;-58
2024/03/25 06:34:53;;;;;;;0.93;0.73;;;20.00;55.70;;;;;;4951594;28;87227;-55
2024/03/25 06:37:19;;;;;;;0.75;0.60;;;20.00;55.70;;;;;;4947716;28;88328;-58
2024/03/25 06:39:45;;;;;;;0.80;0.68;;;20.00;55.90;;;;;;4949414;28;88138;-61
2024/03/25 06:42:13;;;;;;;0.85;0.60;;;20.00;55.70;;;;;;4948135;28;87764;-58
2024/03/25 06:44:49;;;;;;;1.00;0.52;;;20.00;55.90;;;;;;4948846;28;88685;-58
2024/03/25 06:47:15;;;;;;;1.02;0.77;;;20.00;55.90;;;;;;4950146;28;88135;-58
2024/03/25 06:49:42;;;;;;;0.88;0.60;;;20.00;55.90;;;;;;4941547;28;86936;-56
2024/03/25 06:52:09;;;;;;;0.60;0.60;;;20.00;56.50;;;;;;4961056;28;87336;-61
2024/03/25 06:54:34;;;;;;;1.00;0.65;;;20.00;55.80;;;;;;4969020;28;88836;-59
2024/03/25 06:57:03;;;;;;;1.05;0.95;;;20.00;55.80;;;;;;4964138;28;87316;-61
2024/03/25 06:59:35;;;;;;;0.80;0.77;;;20.00;55.70;;;;;;4967509;28;86993;-58
2024/03/25 07:02:02;;;;;;;0.60;0.60;;;20.00;55.70;;;;;;4958343;28;90102;-60
2024/03/25 07:04:27;;;;;;;1.67;0.75;;;20.00;55.70;;;;;;4944337;28;90078;-60
2024/03/25 07:06:56;;;;;;;0.60;0.60;;;20.00;55.50;;;;;;4941832;28;90121;-60
2024/03/25 07:09:24;;;;;;;0.73;0.50;;;20.00;55.70;;;;;;4940128;28;87480;-58
2024/03/25 07:11:50;;;;;;;2.40;0.82;;;20.00;55.40;;;;;;4943766;28;87587;-58
2024/03/25 07:14:15;;;;;;;1.58;0.60;;;20.00;54.30;;;;;;4948770;28;88623;-60
2024/03/25 07:16:41;;;;;;;1.15;0.73;;;20.00;54.40;;;;;;4942471;28;87269;-60
2024/03/25 07:19:07;;;;;;;0.45;0.45;;;20.00;54.50;;;;;;4941117;28;88222;-58
2024/03/25 07:21:33;;;;;;;0.85;0.75;;;20.00;54.70;;;;;;4952084;28;86600;-59
2024/03/25 07:24:02;;;;;;;1.15;0.90;;;20.00;55.10;;;;;;4949451;28;89120;-59
2024/03/25 07:26:29;;;;;;;2.70;1.08;;;20.00;55.90;;;;;;4949020;28;88696;-59
2024/03/25 07:28:58;;;;;;;4.85;0.98;;;20.00;56.00;;;;;;4944928;28;88262;-59
2024/03/25 07:31:25;;;;;;;2.00;1.15;;;20.00;56.50;;;;;;4947129;28;87614;-57
2024/03/25 07:33:53;;;;;;;1.33;0.80;;;20.10;56.60;;;;;;4949626;28;89037;-56
2024/03/25 07:36:22;;;;;;;1.88;0.90;;;20.20;56.60;;;;;;4944689;28;88109;-60
2024/03/25 07:38:48;;;;;;;2.63;0.88;;;20.30;56.30;;;;;;4968419;28;88136;-56
2024/03/25 07:41:14;;;;;;;1.63;0.88;;;20.60;56.30;;;;;;4951643;28;87567;-58
2024/03/25 07:43:40;;;;;;;1.27;1.05;;;20.70;56.10;;;;;;4944111;28;88982;-58
2024/03/25 07:46:07;;;;;;;1.58;1.15;;;20.90;55.80;;;;;;4951344;28;86764;-58
2024/03/25 07:48:35;;;;;;;1.75;0.70;;;21.00;55.60;;;;;;4950197;28;87584;-58
2024/03/25 07:51:02;;;;;;;;;;;21.10;55.40;;;;;;4949033;28;87925;-56
2024/03/25 07:53:29;;;;;;;1.45;0.77;;;21.20;55.30;;;;;;4948781;28;89012;-58
2024/03/25 07:55:55;;;;;;;3.65;1.45;;;21.30;55.30;;;;;;4947428;28;92272;-58
2024/03/25 07:58:21;;;;;;;1.33;0.70;;;21.30;55.20;;;;;;4946589;28;87662;-59
2024/03/25 08:00:47;;;;;;;1.02;0.85;;;21.30;55.30;;;;;;4952847;28;87676;-58
2024/03/25 08:03:13;;;;;;;1.15;0.68;;;21.30;55.20;;;;;;4947702;28;87772;-60
2024/03/25 08:05:39;;;;;;;3.13;0.98;;;21.40;55.20;;;;;;4943767;28;87581;-58
2024/03/25 08:08:08;;;;;;;1.02;0.47;;;21.50;55.30;;;;;;4940251;28;87120;-58
2024/03/25 08:10:36;;;;;;;4.78;1.30;;;21.50;55.00;;;;;;4968313;28;86621;-59
2024/03/25 08:13:04;;;;;;;1.45;1.10;;;21.50;53.20;;;;;;4950233;28;88079;-60
2024/03/25 08:15:31;;;;;;;4.47;1.80;;;21.40;53.90;;;;;;4951600;28;88627;-57
2024/03/25 08:17:57;;;;;;;5.32;1.40;;;21.40;51.50;;;;;;4944618;28;88489;-59
2024/03/25 08:20:22;;;;;;;4.82;1.48;;;21.30;51.40;;;;;;4953352;28;86922;-58
2024/03/25 08:22:52;;;;;;;5.57;2.17;;;21.20;51.70;;;;;;4962835;28;88343;-58
2024/03/25 08:25:17;;;;;;;5.45;1.42;;;21.20;51.80;;;;;;4959334;28;88692;-57
2024/03/25 08:27:43;;;;;;;8.40;2.05;;;21.10;51.70;;;;;;4985883;28;87404;-60
2024/03/25 08:30:11;;;;;;;8.73;1.92;;;21.10;51.80;;;;;;4967272;28;87321;-59
2024/03/25 08:32:40;;;;;;;3.80;1.50;;;21.10;52.00;;;;;;4957213;28;89387;-58
2024/03/25 08:35:07;;;;;;;6.13;1.48;;;21.10;51.90;;;;;;4950597;28;88667;-58
2024/03/25 08:37:32;;;;;;;2.33;1.30;;;21.10;51.90;;;;;;4947499;28;88633;-58
2024/03/25 08:39:58;;;;;;;3.33;1.55;;;21.10;51.80;;;;;;4949608;28;87398;-60
2024/03/25 08:42:25;;;;;;;4.38;1.63;;;21.10;51.70;;;;;;4951621;28;89640;-58
2024/03/25 08:44:51;;;;;;;9.60;1.48;;;21.10;51.90;;;;;;4948534;28;89682;-60
2024/03/25 08:47:16;;;;;;;3.80;1.20;;;21.10;51.80;;;;;;4950525;28;87331;-58
2024/03/25 08:49:43;;;;;;;7.95;1.58;;;21.10;51.80;;;;;;4948250;28;87747;-59
2024/03/25 08:52:12;;;;;;;2.03;1.20;;;21.10;51.90;;;;;;4949497;28;87645;-59
2024/03/25 08:54:37;;;;;;;3.53;1.13;;;21.20;51.30;;;;;;4950727;28;87692;-58
2024/03/25 08:57:05;;;;;;;4.22;1.55;;;21.10;50.80;;;;;;4949567;28;87410;-58
2024/03/25 08:59:32;;;;;;;3.47;1.38;;;21.20;51.20;;;;;;4946449;28;87975;-59
2024/03/25 09:01:58;;;;;;;5.65;1.23;;;21.20;51.10;;;;;;4951723;28;88669;-58
2024/03/25 09:04:24;;;;;;;5.85;1.40;;;21.20;51.20;;;;;;4950071;28;87998;-59
2024/03/25 09:06:50;;;;;;;6.95;1.73;;;21.20;51.20;;;;;;4952078;28;88172;-58
2024/03/25 09:12:03;;;;;;;4.38;1.30;;;21.30;51.30;;;;;;4952329;28;87387;-59
2024/03/25 09:14:29;;;;;;;4.05;1.60;;;21.30;51.30;;;;;;4947681;28;88419;-60
2024/03/25 09:16:55;;;;;;;6.32;1.77;;;21.30;51.20;;;;;;4942151;28;87463;-59
2024/03/25 09:19:21;;;;;;;7.13;1.80;;;21.30;51.30;;;;;;4950616;28;87141;-60
2024/03/25 09:21:47;;;;;;;7.70;2.15;;;21.30;51.40;;;;;;4950965;28;88193;-60
2024/03/25 09:24:15;;;;;;;6.80;1.95;;;21.30;52.00;;;;;;4950510;28;88825;-58
2024/03/25 09:26:40;;;;;;;6.85;2.10;;;21.30;51.70;;;;;;4949750;28;87365;-60
2024/03/25 09:29:06;;;;;;;6.38;1.80;;;21.40;51.90;;;;;;4947286;28;87822;-58
2024/03/25 09:31:33;;;;;;;6.13;2.55;;;21.40;51.80;;;;;;4944720;28;90374;-59
2024/03/25 09:33:59;;;;;;;8.75;2.25;;;21.30;51.90;;;;;;4949226;28;89329;-59
2024/03/25 09:36:25;;;;;;;5.72;2.15;;;21.30;52.10;;;;;;4953188;28;87618;-60
2024/03/25 09:38:52;;;;;;;7.03;1.90;;;21.30;52.20;;;;;;4951046;28;87426;-59
2024/03/25 09:41:18;;;;;;;27.23;4.45;;;21.40;52.50;;;;;;4951736;28;88146;-61
2024/03/25 09:43:49;;;;;;;15.70;3.90;;;21.40;52.20;;;;;;4951167;28;87572;-58
2024/03/25 09:46:16;;;;;;;14.38;4.15;;;21.40;52.20;;;;;;4948414;28;87186;-58
2024/03/25 09:48:46;;;;;;;13.98;4.22;;;21.40;51.60;;;;;;4950423;28;86883;-60
2024/03/25 09:51:18;;;;;;;18.77;4.22;;;21.30;50.20;;;;;;4949287;28;89283;-58
2024/03/25 09:53:45;;;;;;;16.77;5.13;;;21.20;49.80;;;;;;4949589;28;88667;-61
2024/03/25 09:56:15;;;;;;;14.10;4.00;;;21.30;49.90;;;;;;4946486;28;88069;-62
2024/03/25 09:58:44;;;;;;;17.27;4.70;;;21.40;49.90;;;;;;4946849;28;87774;-59
2024/03/25 10:01:10;;;;;;;16.25;4.90;;;21.40;49.80;;;;;;4949928;28;88040;-61
2024/03/25 10:03:37;;;;;;;12.73;3.70;;;21.40;49.50;;;;;;4949341;28;88293;-62
2024/03/25 10:06:04;;;;;;;22.58;3.88;;;21.40;49.40;;;;;;4946971;28;87413;-60
2024/03/25 10:08:30;;;;;;;12.45;3.80;;;21.40;49.20;;;;;;4950365;28;88297;-60
2024/03/25 10:10:55;;;;;;;12.63;4.18;;;21.40;49.00;;;;;;4947666;28;89321;-59
2024/03/25 10:13:22;;;;;;;14.95;4.70;;;21.50;49.20;;;;;;4948370;28;87829;-63
2024/03/25 10:15:48;;;;;;;11.18;3.45;;;21.50;49.00;;;;;;4966125;28;87297;-61
2024/03/25 10:18:14;;;;;;;11.73;3.55;;;21.50;48.90;;;;;;4948944;28;88465;-61
2024/03/25 10:20:56;;;;;;;10.38;3.38;;;21.40;48.70;;;;;;4949756;28;89507;-62
2024/03/25 10:23:25;;;;;;;10.18;3.25;;;21.50;48.40;;;;;;4945722;28;90125;-61
2024/03/25 10:25:55;;;;;;;10.48;2.95;;;21.50;48.40;;;;;;4951155;28;86976;-60
2024/03/25 10:28:22;;;;;;;8.60;3.25;;;21.60;48.60;;;;;;4982059;28;88556;-59
2024/03/25 10:30:48;;;;;;;9.02;3.13;;;21.60;48.70;;;;;;4949105;28;88084;-59
2024/03/25 10:33:14;;;;;;;12.52;3.45;;;21.50;48.40;;;;;;4945981;28;88221;-64
2024/03/25 10:35:41;;;;;;;8.32;2.78;;;21.60;48.80;;;;;;4963463;28;87815;-60
2024/03/25 10:38:12;;;;;;;12.80;3.75;;;21.60;49.20;;;;;;4949184;28;87586;-58
2024/03/25 10:40:39;;;;;;;11.02;3.40;;;21.60;49.20;;;;;;4968528;28;88171;-59
2024/03/25 10:43:08;;;;;;;20.77;5.32;;;21.60;49.50;;;;;;4965881;28;88690;-59
2024/03/25 10:45:46;;;;;;;10.00;2.85;;;21.60;49.90;;;;;;4943381;28;88432;-61
2024/03/25 10:48:40;;;;;;;11.30;3.63;;;21.60;50.00;;;;;;4964541;28;87717;-61
2024/03/25 10:51:08;;;;;;;8.68;2.75;;;21.60;50.00;;;;;;4949903;28;87948;-60
2024/03/25 10:53:35;;;;;;;6.78;2.72;;;21.60;49.90;;;;;;4948238;28;88915;-60
2024/03/25 10:56:01;;;;;;;13.93;3.70;;;21.60;50.00;;;;;;4947270;28;88108;-60
2024/03/25 10:58:28;;;;;;;11.48;4.15;;;21.60;50.10;;;;;;4944238;28;86936;-60
2024/03/25 11:00:56;;;;;;;10.38;3.53;;;21.70;50.20;;;;;;4961328;28;88489;-59
2024/03/25 11:03:23;;;;;;;10.15;3.33;;;21.60;50.50;;;;;;4949985;28;88623;-61
2024/03/25 11:05:49;;;;;;;8.55;3.20;;;21.70;50.30;;;;;;4945117;28;87501;-61
2024/03/25 11:08:16;;;;;;;6.78;2.80;;;21.70;50.40;;;;;;4948387;28;86960;-60
2024/03/25 11:10:43;;;;;;;11.27;3.85;;;21.70;50.20;;;;;;4947654;28;89795;-60
2024/03/25 11:13:19;;;;;;;11.02;3.10;;;21.70;50.20;;;;;;4947373;28;88387;-58
2024/03/25 11:15:47;;;;;;;7.72;2.28;;;21.70;50.30;;;;;;4947163;28;87227;-60
2024/03/25 11:18:18;;;;;;;6.60;2.65;;;21.70;50.30;;;;;;4947462;28;87502;-60
2024/03/25 11:20:44;;;;;;;6.28;3.25;;;21.70;50.20;;;;;;4948924;28;88790;-59
2024/03/25 11:23:11;;;;;;;8.35;3.08;;;21.70;50.20;;;;;;4944361;28;89013;-63
2024/03/25 11:25:38;;;;;;;6.18;2.17;;;21.70;50.20;;;;;;4956508;28;91540;-58
2024/03/25 11:28:05;;;;;;;8.63;2.60;;;21.70;50.60;;;;;;4946788;28;86269;-59
2024/03/25 11:30:31;;;;;;;9.43;2.67;;;21.70;51.10;;;;;;4948827;28;87378;-60
2024/03/25 11:33:02;;;;;;;8.82;3.00;;;21.70;51.40;;;;;;4944838;28;87801;-59
2024/03/25 11:35:28;;;;;;;8.30;3.47;;;21.60;51.40;;;;;;4949849;28;88305;-59
2024/03/25 11:37:54;;;;;;;9.80;2.95;;;21.60;51.70;;;;;;4951536;28;87515;-59
2024/03/25 11:40:20;;;;;;;6.78;2.33;;;21.60;51.80;;;;;;4953351;28;87992;-59
2024/03/25 11:42:46;;;;;;;7.78;2.40;;;21.60;51.80;;;;;;4954336;28;87891;-59
2024/03/25 11:45:20;;;;;;;7.43;2.88;;;21.60;51.90;;;;;;4952378;28;88546;-59
2024/03/25 11:47:48;;;;;;;7.68;2.38;;;21.60;51.70;;;;;;4949897;28;88072;-58
2024/03/25 11:50:18;;;;;;;6.35;3.08;;;21.60;51.80;;;;;;4952733;28;88188;-60
2024/03/25 11:52:45;;;;;;;10.55;3.08;;;21.60;51.70;;;;;;4968062;28;88168;-59
2024/03/25 11:55:14;;;;;;;6.22;2.15;;;21.60;51.70;;;;;;4953312;28;87303;-59
2024/03/25 11:57:40;;;;;;;6.20;3.08;;;21.70;51.70;;;;;;4953029;28;87580;-59
2024/03/25 12:00:10;;;;;;;6.75;2.10;;;21.70;51.80;;;;;;4950867;28;89014;-58
2024/03/25 12:02:37;;;;;;;6.10;2.15;;;21.60;51.80;;;;;;4951908;28;89239;-60
2024/03/25 12:05:05;;;;;;;4.75;1.60;;;21.70;51.90;;;;;;4951189;28;87173;-59
2024/03/25 12:07:32;;;;;;;5.05;2.25;;;21.70;51.80;;;;;;4947744;28;87769;-59
2024/03/25 12:12:45;;;;;;;8.15;2.60;;;21.70;51.40;;;;;;4951331;28;88183;-59
2024/03/25 12:15:11;;;;;;;6.45;2.38;;;21.80;51.50;;;;;;4950888;28;87359;-60
2024/03/25 12:17:37;;;;;;;7.20;2.03;;;21.80;51.50;;;;;;4950183;28;91285;-58
2024/03/25 12:20:16;;;;;;;6.28;1.83;;;21.80;51.70;;;;;;4965516;28;87584;-58
2024/03/25 12:22:44;;;;;;;4.70;2.35;;;21.90;51.50;;;;;;4970672;28;88591;-59
2024/03/25 12:25:11;;;;;;;4.78;2.13;;;21.90;51.50;;;;;;4966039;28;88305;-59
2024/03/25 12:27:38;;;;;;;4.43;1.80;;;21.90;51.50;;;;;;4972070;28;87561;-59
2024/03/25 12:30:06;;;;;;;6.47;2.38;;;21.90;51.40;;;;;;4970180;28;87673;-57
2024/03/25 12:32:41;;;;;;;4.10;1.83;;;21.90;52.10;;;;;;4967987;28;88645;-59
2024/03/25 12:35:16;;;;;;;4.80;1.85;;;21.90;51.40;;;;;;4970521;28;86848;-61
2024/03/25 12:37:44;;;;;;;3.30;1.88;;;21.90;51.30;;;;;;4969417;28;87744;-58
2024/03/25 12:40:11;;;;;;;3.38;1.92;;;22.00;51.40;;;;;;4955768;28;88063;-57
2024/03/25 12:42:39;;;;;;;4.05;1.98;;;22.00;51.40;;;;;;4951446;28;87856;-59
2024/03/25 12:45:06;;;;;;;4.25;1.90;;;22.00;51.30;;;;;;4943767;28;88556;-59
2024/03/25 12:47:32;;;;;;;6.80;3.08;;;22.00;51.50;;;;;;4947729;28;87887;-60
2024/03/25 12:49:58;;;;;;;5.20;1.98;;;22.00;51.60;;;;;;4948482;28;89027;-60
2024/03/25 12:52:24;;;;;;;2.80;1.30;;;22.00;51.40;;;;;;4948191;28;89079;-58
2024/03/25 12:54:51;;;;;;;3.53;1.63;;;22.00;51.50;;;;;;4950363;28;87774;-58